createdAt,value
2019-04-28T00:01:07.183Z,8.30
2019-04-28T00:03:36.233Z,14.60
2019-04-28T00:06:05.354Z,8.90
2019-04-28T00:08:34.383Z,7.07
2019-04-28T00:11:03.936Z,10.73
2019-04-28T00:13:33.008Z,5.53
2019-04-28T00:16:02.460Z,7.53
2019-04-28T00:18:31.804Z,8.97
2019-04-28T00:21:28.760Z,8.73
2019-04-28T00:24:12.336Z,8.67
2019-04-28T00:27:06.587Z,11.70
2019-04-28T00:29:40.488Z,10.40
2019-04-28T00:32:06.637Z,6.93
2019-04-28T00:34:35.725Z,6.53
2019-04-28T00:37:41.700Z,4.60
2019-04-28T00:40:11.413Z,7.30
2019-04-28T00:42:41.415Z,8.30
2019-04-28T00:45:11.538Z,5.57
2019-04-28T00:47:40.845Z,6.30
2019-04-28T00:50:11.767Z,5.60
2019-04-28T00:52:41.903Z,4.93
2019-04-28T00:55:11.419Z,4.13
2019-04-28T00:57:41.043Z,5.17
2019-04-28T01:00:11.576Z,4.20
2019-04-28T01:02:42.774Z,3.20
2019-04-28T01:05:12.522Z,4.37
2019-04-28T01:07:41.829Z,4.13
2019-04-28T01:10:11.451Z,5.10
2019-04-28T01:12:41.195Z,5.07
2019-04-28T01:15:15.355Z,3.63
2019-04-28T01:18:10.483Z,5.80
2019-04-28T01:20:39.937Z,6.57
2019-04-28T01:23:10.374Z,4.53
2019-04-28T01:25:40.116Z,4.40
2019-04-28T01:28:09.915Z,8.13
2019-04-28T01:31:16.582Z,4.83
2019-04-28T01:34:04.880Z,6.80
2019-04-28T01:36:36.552Z,5.67
2019-04-28T01:39:07.440Z,4.00
2019-04-28T01:41:36.858Z,6.33
2019-04-28T01:44:06.248Z,7.93
2019-04-28T01:46:35.629Z,4.87
2019-04-28T01:49:04.624Z,8.13
2019-04-28T01:51:33.663Z,6.43
2019-04-28T01:54:02.798Z,7.00
2019-04-28T01:56:31.814Z,6.23
2019-04-28T01:59:01.231Z,8.73
2019-04-28T02:01:30.350Z,8.57
2019-04-28T02:04:00.213Z,6.27
2019-04-28T02:06:30.043Z,6.37
2019-04-28T02:09:00.883Z,7.40
2019-04-28T02:11:30.400Z,10.70
2019-04-28T02:13:59.778Z,6.40
2019-04-28T02:16:29.594Z,5.27
2019-04-28T02:18:59.764Z,10.87
2019-04-28T02:21:49.552Z,7.07
2019-04-28T02:24:35.182Z,6.83
2019-04-28T02:27:04.588Z,13.00
2019-04-28T02:29:34.237Z,8.77
2019-04-28T02:32:04.083Z,7.97
2019-04-28T02:34:33.090Z,7.67
2019-04-28T02:37:02.422Z,7.07
2019-04-28T02:39:31.673Z,10.90
2019-04-28T02:42:01.814Z,9.57
2019-04-28T02:44:34.694Z,7.03
2019-04-28T02:47:01.830Z,11.83
2019-04-28T02:49:54.868Z,8.73
2019-04-28T02:52:41.742Z,7.60
2019-04-28T02:55:11.434Z,7.77
2019-04-28T02:57:40.967Z,9.17
2019-04-28T03:00:10.491Z,10.47
2019-04-28T03:02:41.325Z,8.87
2019-04-28T03:05:11.582Z,7.43
2019-04-28T03:07:41.143Z,6.67
2019-04-28T03:10:11.279Z,7.80
2019-04-28T03:12:41.383Z,7.43
2019-04-28T03:15:10.751Z,9.00
2019-04-28T03:17:40.649Z,6.40
2019-04-28T03:20:11.116Z,8.63
2019-04-28T03:22:41.056Z,8.77
2019-04-28T03:25:15.068Z,9.90
2019-04-28T03:28:12.197Z,9.47
2019-04-28T03:30:54.036Z,8.93
2019-04-28T03:33:25.722Z,10.33
2019-04-28T03:35:54.318Z,9.00
2019-04-28T03:38:23.513Z,7.03
2019-04-28T03:40:52.521Z,6.67
2019-04-28T03:43:21.864Z,8.50
2019-04-28T03:45:55.694Z,7.93
2019-04-28T03:48:24.689Z,7.93
2019-04-28T03:50:53.731Z,6.07
2019-04-28T03:53:22.769Z,10.07
2019-04-28T03:55:52.137Z,8.47
2019-04-28T03:58:24.043Z,7.27
2019-04-28T04:00:52.242Z,7.23
2019-04-28T04:03:21.575Z,7.63
2019-04-28T04:05:51.082Z,8.43
2019-04-28T04:08:21.055Z,7.83
2019-04-28T04:11:00.392Z,8.57
2019-04-28T04:13:38.380Z,7.50
2019-04-28T04:16:30.789Z,8.87
2019-04-28T04:19:00.867Z,8.10
2019-04-28T04:21:31.060Z,5.80
2019-04-28T04:24:01.208Z,7.13
2019-04-28T04:26:33.381Z,7.27
2019-04-28T04:29:01.774Z,5.70
2019-04-28T04:31:31.714Z,4.93
2019-04-28T04:34:03.460Z,6.87
2019-04-28T04:36:31.908Z,6.27
2019-04-28T04:39:02.038Z,7.57
2019-04-28T04:41:31.270Z,4.83
2019-04-28T04:44:01.302Z,6.73
2019-04-28T04:46:31.370Z,6.43
2019-04-28T04:49:01.132Z,5.80
2019-04-28T04:51:31.186Z,6.63
2019-04-28T04:54:01.196Z,7.03
2019-04-28T04:56:30.916Z,7.33
2019-04-28T04:59:02.687Z,4.53
2019-04-28T05:01:40.981Z,5.40
2019-04-28T05:04:29.725Z,7.53
2019-04-28T05:06:59.711Z,7.77
2019-04-28T05:09:31.046Z,9.57
2019-04-28T05:11:59.898Z,7.87
2019-04-28T05:14:29.895Z,8.67
2019-04-28T05:17:00.805Z,9.67
2019-04-28T05:19:30.338Z,7.83
2019-04-28T05:22:00.037Z,11.30
2019-04-28T05:24:54.543Z,10.90
2019-04-28T05:27:25.597Z,11.63
2019-04-28T05:29:56.727Z,6.27
2019-04-28T05:32:25.174Z,9.43
2019-04-28T05:34:54.212Z,6.87
2019-04-28T05:37:23.237Z,7.53
2019-04-28T05:39:52.690Z,11.73
2019-04-28T05:42:22.153Z,11.57
2019-04-28T05:44:51.183Z,11.17
2019-04-28T05:47:20.439Z,12.10
2019-04-28T05:50:05.150Z,10.67
2019-04-28T05:52:53.157Z,8.77
2019-04-28T05:55:27.250Z,8.40
2019-04-28T05:58:19.889Z,7.47
2019-04-28T06:01:17.086Z,7.60
2019-04-28T06:03:47.116Z,10.80
2019-04-28T06:06:16.134Z,13.23
2019-04-28T06:08:56.978Z,6.83
2019-04-28T06:11:30.642Z,12.33
2019-04-28T06:14:00.485Z,10.60
2019-04-28T06:16:30.430Z,11.03
2019-04-28T06:19:00.182Z,11.13
2019-04-28T06:21:29.602Z,12.10
2019-04-28T06:23:58.940Z,9.53
2019-04-28T06:26:28.296Z,9.10
2019-04-28T06:28:57.432Z,13.13
2019-04-28T06:31:26.447Z,9.17
2019-04-28T06:33:55.459Z,7.60
2019-04-28T06:36:24.789Z,10.13
2019-04-28T06:38:53.840Z,8.37
2019-04-28T06:41:22.828Z,12.93
2019-04-28T06:43:51.867Z,12.47
2019-04-28T06:46:20.880Z,10.73
2019-04-28T06:48:49.882Z,10.63
2019-04-28T06:51:18.912Z,15.70
2019-04-28T06:53:47.908Z,12.50
2019-04-28T06:56:17.462Z,10.37
2019-04-28T06:58:58.435Z,9.43
2019-04-28T07:01:18.173Z,9.60
2019-04-28T07:03:47.232Z,8.80
2019-04-28T07:06:16.221Z,14.63
2019-04-28T07:08:45.274Z,11.27
2019-04-28T07:11:14.285Z,10.00
2019-04-28T07:13:43.316Z,12.80
2019-04-28T07:16:12.712Z,9.30
2019-04-28T07:18:41.751Z,9.70
2019-04-28T07:21:29.774Z,12.27
2019-04-28T07:23:59.122Z,8.60
2019-04-28T07:26:28.451Z,11.53
2019-04-28T07:28:57.539Z,10.47
2019-04-28T07:31:26.663Z,13.07
2019-04-28T07:33:55.815Z,14.53
2019-04-28T07:36:25.267Z,8.80
2019-04-28T07:38:54.334Z,6.70
2019-04-28T07:41:23.785Z,12.67
2019-04-28T07:43:52.854Z,11.20
2019-04-28T07:46:21.923Z,7.47
2019-04-28T07:48:52.531Z,10.03
2019-04-28T07:51:23.686Z,6.83
2019-04-28T07:53:56.720Z,8.33
2019-04-28T07:56:26.394Z,8.63
2019-04-28T07:58:55.456Z,8.00
2019-04-28T08:01:24.511Z,9.03
2019-04-28T08:03:53.542Z,7.57
2019-04-28T08:06:22.589Z,9.33
2019-04-28T08:08:51.682Z,9.40
2019-04-28T08:11:20.730Z,12.20
2019-04-28T08:13:50.533Z,18.60
2019-04-28T08:16:19.589Z,14.27
2019-04-28T08:18:48.623Z,11.37
2019-04-28T08:21:17.670Z,6.67
2019-04-28T08:23:47.715Z,8.43
2019-04-28T08:26:16.821Z,8.90
2019-04-28T08:28:45.888Z,7.13
2019-04-28T08:31:17.257Z,7.13
2019-04-28T08:34:02.098Z,8.73
2019-04-28T08:36:24.101Z,9.10
2019-04-28T08:38:53.117Z,9.57
2019-04-28T08:41:22.152Z,7.40
2019-04-28T08:43:51.161Z,8.17
2019-04-28T08:46:20.242Z,6.17
2019-04-28T08:48:49.336Z,5.90
2019-04-28T08:51:18.898Z,7.33
2019-04-28T08:53:47.911Z,8.20
2019-04-28T08:56:16.925Z,7.53
2019-04-28T08:58:46.353Z,10.17
2019-04-28T09:01:15.713Z,5.87
2019-04-28T09:03:44.751Z,7.20
2019-04-28T09:06:13.799Z,8.87
2019-04-28T09:08:43.182Z,5.90
2019-04-28T09:11:12.626Z,8.40
2019-04-28T09:13:43.852Z,5.77
2019-04-28T09:16:12.771Z,7.30
2019-04-28T09:18:41.849Z,6.23
2019-04-28T09:21:11.261Z,8.07
2019-04-28T09:23:40.328Z,7.93
2019-04-28T09:26:09.357Z,7.63
2019-04-28T09:28:38.390Z,7.57
2019-04-28T09:31:07.750Z,6.10
2019-04-28T09:33:36.839Z,6.53
2019-04-28T09:36:06.224Z,6.03
2019-04-28T09:38:35.268Z,9.33
2019-04-28T09:41:04.323Z,7.33
2019-04-28T09:43:51.071Z,6.97
2019-04-28T09:46:23.161Z,9.23
2019-04-28T09:48:52.584Z,9.90
2019-04-28T09:51:21.736Z,7.60
2019-04-28T09:53:51.074Z,11.97
2019-04-28T09:56:20.423Z,10.23
2019-04-28T09:58:49.517Z,10.13
2019-04-28T10:01:18.588Z,8.43
2019-04-28T10:03:47.638Z,11.13
2019-04-28T10:06:16.689Z,10.53
2019-04-28T10:08:45.699Z,9.83
2019-04-28T10:11:14.999Z,11.43
2019-04-28T10:13:44.110Z,10.03
2019-04-28T10:16:13.205Z,7.87
2019-04-28T10:18:42.277Z,8.00
2019-04-28T10:21:11.753Z,5.73
2019-04-28T10:23:40.787Z,10.20
2019-04-28T10:26:09.898Z,9.63
2019-04-28T10:28:39.267Z,5.80
2019-04-28T10:31:08.491Z,7.23
2019-04-28T10:33:39.553Z,4.57
2019-04-28T10:36:09.288Z,6.47
2019-04-28T10:38:40.874Z,4.93
2019-04-28T10:41:15.755Z,6.97
2019-04-28T10:43:44.792Z,4.50
2019-04-28T10:46:14.193Z,5.73
2019-04-28T10:48:43.637Z,4.73
2019-04-28T10:51:12.633Z,6.17
2019-04-28T10:53:41.990Z,6.20
2019-04-28T10:56:11.065Z,11.67
2019-04-28T10:58:42.273Z,7.43
2019-04-28T11:01:11.355Z,8.43
2019-04-28T11:03:41.488Z,8.30
2019-04-28T11:06:12.644Z,10.23
2019-04-28T11:09:00.563Z,13.60
2019-04-28T11:11:29.948Z,6.33
2019-04-28T11:13:59.059Z,12.33
2019-04-28T11:16:31.803Z,10.67
2019-04-28T11:19:01.169Z,9.37
2019-04-28T11:21:30.185Z,4.83
2019-04-28T11:23:59.308Z,4.90
2019-04-28T11:26:28.347Z,6.27
2019-04-28T11:28:57.715Z,7.77
2019-04-28T11:31:27.301Z,6.83
2019-04-28T11:34:06.939Z,10.77
2019-04-28T11:36:36.842Z,7.97
2019-04-28T11:39:09.382Z,7.77
2019-04-28T11:41:38.550Z,6.13
2019-04-28T11:44:07.557Z,11.03
2019-04-28T11:46:36.741Z,5.13
2019-04-28T11:49:05.907Z,12.63
2019-04-28T11:51:35.023Z,11.33
2019-04-28T11:54:05.613Z,5.70
2019-04-28T11:59:06.225Z,3.30
2019-04-28T12:01:35.585Z,4.13
2019-04-28T12:04:06.322Z,7.27
2019-04-28T12:06:35.771Z,6.63
2019-04-28T12:09:24.330Z,8.67
2019-04-28T12:11:53.977Z,6.53
2019-04-28T12:14:27.079Z,7.43
2019-04-28T12:17:24.816Z,7.53
2019-04-28T12:19:57.612Z,7.00
2019-04-28T12:22:26.985Z,6.90
2019-04-28T12:24:56.205Z,5.13
2019-04-28T12:27:25.247Z,4.90
2019-04-28T12:29:54.996Z,4.30
2019-04-28T12:32:24.091Z,5.23
2019-04-28T12:34:53.498Z,5.30
2019-04-28T12:37:22.885Z,5.83
2019-04-28T12:39:51.945Z,6.63
2019-04-28T12:42:21.389Z,7.87
2019-04-28T12:44:50.470Z,4.80
2019-04-28T12:47:24.880Z,5.43
2019-04-28T12:50:00.090Z,5.60
2019-04-28T12:52:29.248Z,6.63
2019-04-28T12:54:58.921Z,5.83
2019-04-28T12:57:28.388Z,6.00
2019-04-28T13:00:10.479Z,4.67
2019-04-28T13:03:01.710Z,6.37
2019-04-28T13:05:32.945Z,6.40
2019-04-28T13:08:02.001Z,6.37
2019-04-28T13:10:31.480Z,6.43
2019-04-28T13:13:01.017Z,5.07
2019-04-28T13:15:30.105Z,5.57
2019-04-28T13:17:59.245Z,6.10
2019-04-28T13:20:28.241Z,5.70
2019-04-28T13:23:15.710Z,6.70
2019-04-28T13:25:48.058Z,5.90
2019-04-28T13:28:17.139Z,5.43
2019-04-28T13:30:46.872Z,6.50
2019-04-28T13:33:15.991Z,9.07
2019-04-28T13:35:45.042Z,7.23
2019-04-28T13:38:14.117Z,8.37
2019-04-28T13:40:43.631Z,8.17
2019-04-28T13:43:12.781Z,5.53
2019-04-28T13:45:42.199Z,6.10
2019-04-28T13:48:11.690Z,6.30
2019-04-28T13:50:40.768Z,7.63
2019-04-28T13:53:10.534Z,7.70
2019-04-28T13:56:02.072Z,5.30
2019-04-28T13:58:37.714Z,5.83
2019-04-28T14:01:14.329Z,7.33
2019-04-28T14:04:05.143Z,8.87
2019-04-28T14:06:37.962Z,5.23
2019-04-28T14:09:12.648Z,5.50
2019-04-28T14:11:42.084Z,8.23
2019-04-28T14:14:12.539Z,9.60
2019-04-28T14:16:41.666Z,6.23
2019-04-28T14:19:10.715Z,9.07
2019-04-28T14:21:40.506Z,8.90
2019-04-28T14:24:09.509Z,9.17
2019-04-28T14:26:40.211Z,7.77
2019-04-28T14:29:09.831Z,5.37
2019-04-28T14:31:39.177Z,8.60
2019-04-28T14:34:09.060Z,7.17
2019-04-28T14:36:42.365Z,7.47
2019-04-28T14:39:09.364Z,8.97
2019-04-28T14:41:38.531Z,6.70
2019-04-28T14:44:07.679Z,6.23
2019-04-28T14:46:37.833Z,6.50
2019-04-28T14:49:11.177Z,4.70
2019-04-28T14:51:41.041Z,6.93
2019-04-28T14:54:11.963Z,6.33
2019-04-28T14:56:41.329Z,6.97
2019-04-28T14:59:10.420Z,8.67
2019-04-28T15:02:04.560Z,7.17
2019-04-28T15:04:51.124Z,5.80
2019-04-28T15:07:39.142Z,5.03
2019-04-28T15:10:33.483Z,7.40
2019-04-28T15:13:03.480Z,5.67
2019-04-28T15:15:33.004Z,7.83
2019-04-28T15:18:02.604Z,10.63
2019-04-28T15:20:31.994Z,6.27
2019-04-28T15:23:01.059Z,6.60
2019-04-28T15:25:30.093Z,7.00
2019-04-28T15:27:59.097Z,8.70
2019-04-28T15:30:28.221Z,11.43
2019-04-28T15:32:57.567Z,7.70
2019-04-28T15:35:27.017Z,7.23
2019-04-28T15:37:56.022Z,9.57
2019-04-28T15:40:25.034Z,9.20
2019-04-28T15:42:54.134Z,8.13
2019-04-28T15:45:23.174Z,9.20
2019-04-28T15:47:52.345Z,8.83
2019-04-28T15:50:29.259Z,10.13
2019-04-28T15:52:58.434Z,9.60
2019-04-28T15:55:34.683Z,10.40
2019-04-28T15:58:23.249Z,9.13
2019-04-28T16:00:52.305Z,10.23
2019-04-28T16:03:21.558Z,8.97
2019-04-28T16:05:50.971Z,7.60
2019-04-28T16:08:19.994Z,9.40
2019-04-28T16:10:49.052Z,8.93
2019-04-28T16:13:18.097Z,10.13
2019-04-28T16:15:47.179Z,7.13
2019-04-28T16:18:16.548Z,9.03
2019-04-28T16:20:45.716Z,8.03
2019-04-28T16:23:14.798Z,8.40
2019-04-28T16:25:44.195Z,9.63
2019-04-28T16:28:13.377Z,7.00
2019-04-28T16:30:42.434Z,7.73
2019-04-28T16:33:11.895Z,10.20
2019-04-28T16:35:41.218Z,9.80
2019-04-28T16:38:10.264Z,10.20
2019-04-28T16:40:49.951Z,9.43
2019-04-28T16:43:23.590Z,10.93
2019-04-28T16:45:52.622Z,12.03
2019-04-28T16:48:21.750Z,9.43
2019-04-28T16:50:50.787Z,10.43
2019-04-28T16:53:19.816Z,10.23
2019-04-28T16:56:20.029Z,12.77
2019-04-28T16:59:07.037Z,9.00
2019-04-28T17:02:01.063Z,9.57
2019-04-28T17:04:30.401Z,9.07
2019-04-28T17:07:00.069Z,9.90
2019-04-28T17:09:29.499Z,8.47
2019-04-28T17:11:58.646Z,9.60
2019-04-28T17:14:27.975Z,11.70
2019-04-28T17:16:57.378Z,9.57
2019-04-28T17:19:26.640Z,9.17
2019-04-28T17:21:55.962Z,8.40
2019-04-28T17:24:25.051Z,11.17
2019-04-28T17:26:54.412Z,10.13
2019-04-28T17:29:23.833Z,10.20
2019-04-28T17:31:52.836Z,9.63
2019-04-28T17:34:22.512Z,8.77
2019-04-28T17:36:51.552Z,9.97
2019-04-28T17:39:22.540Z,10.83
2019-04-28T17:41:52.090Z,11.00
2019-04-28T17:44:21.440Z,10.63
2019-04-28T17:46:50.846Z,11.00
2019-04-28T17:49:25.586Z,11.50
2019-04-28T17:51:54.862Z,12.87
2019-04-28T17:54:23.860Z,12.00
2019-04-28T17:56:52.884Z,11.00
2019-04-28T17:59:22.270Z,11.40
2019-04-28T18:02:16.337Z,10.97
2019-04-28T18:05:08.462Z,12.77
2019-04-28T18:07:38.288Z,13.53
2019-04-28T18:10:08.775Z,13.53
2019-04-28T18:12:37.817Z,10.13
2019-04-28T18:15:31.418Z,12.10
2019-04-28T18:18:11.768Z,11.60
2019-04-28T18:20:40.819Z,10.73
2019-04-28T18:23:09.870Z,11.83
2019-04-28T18:25:39.030Z,12.57
2019-04-28T18:28:08.449Z,9.93
2019-04-28T18:30:41.118Z,9.80
2019-04-28T18:33:29.093Z,9.00
2019-04-28T18:36:07.224Z,9.93
2019-04-28T18:38:58.556Z,9.57
2019-04-28T18:41:43.549Z,8.23
2019-04-28T18:44:18.742Z,10.03
2019-04-28T18:46:47.785Z,10.87
2019-04-28T18:49:17.224Z,9.53
2019-04-28T18:51:46.366Z,9.03
2019-04-28T18:54:15.686Z,9.37
2019-04-28T18:56:45.171Z,10.50
2019-04-28T18:59:14.545Z,11.03
2019-04-28T19:02:11.513Z,11.00
2019-04-28T19:04:40.645Z,11.03
2019-04-28T19:07:11.593Z,12.17
2019-04-28T19:10:01.717Z,10.73
2019-04-28T19:12:36.299Z,12.70
2019-04-28T19:15:27.871Z,12.00
2019-04-28T19:18:04.077Z,13.43
2019-04-28T19:20:33.498Z,12.77
2019-04-28T19:23:03.206Z,13.30
2019-04-28T19:25:35.232Z,10.40
2019-04-28T19:28:03.355Z,11.53
2019-04-28T19:30:32.390Z,14.80
2019-04-28T19:33:01.453Z,13.03
2019-04-28T19:35:30.606Z,12.67
2019-04-28T19:37:59.674Z,11.23
2019-04-28T19:40:28.737Z,10.93
2019-04-28T19:42:57.772Z,12.70
2019-04-28T19:45:26.798Z,11.77
2019-04-28T19:47:56.367Z,10.97
2019-04-28T19:50:25.461Z,14.00
2019-04-28T19:52:56.566Z,13.13
2019-04-28T19:55:30.423Z,15.50
2019-04-28T19:58:13.493Z,18.63
2019-04-28T20:00:47.261Z,15.13
2019-04-28T20:03:16.593Z,15.10
2019-04-28T20:05:45.672Z,16.07
2019-04-28T20:08:14.775Z,15.33
2019-04-28T20:10:43.867Z,15.60
2019-04-28T20:13:13.017Z,12.17
2019-04-28T20:15:42.436Z,15.10
2019-04-28T20:18:11.801Z,14.53
2019-04-28T20:20:40.907Z,14.47
2019-04-28T20:23:10.878Z,18.47
2019-04-28T20:25:40.236Z,16.70
2019-04-28T20:28:09.543Z,14.40
2019-04-28T20:30:38.583Z,20.67
2019-04-28T20:33:08.024Z,19.30
2019-04-28T20:35:40.450Z,14.97
2019-04-28T20:38:15.796Z,15.37
2019-04-28T20:41:00.475Z,14.77
2019-04-28T20:43:29.578Z,17.37
2019-04-28T20:45:58.622Z,15.40
2019-04-28T20:48:27.638Z,14.53
2019-04-28T20:50:56.685Z,15.33
2019-04-28T20:53:25.981Z,18.20
2019-04-28T20:55:55.049Z,17.03
2019-04-28T20:58:24.093Z,16.27
2019-04-28T21:00:53.702Z,15.63
2019-04-28T21:03:22.709Z,16.53
2019-04-28T21:05:51.769Z,14.47
2019-04-28T21:08:21.407Z,12.80
2019-04-28T21:10:51.021Z,15.63
2019-04-28T21:13:20.053Z,15.53
2019-04-28T21:15:49.395Z,16.57
2019-04-28T21:18:18.427Z,16.43
2019-04-28T21:20:47.468Z,14.03
2019-04-28T21:23:16.523Z,14.27
2019-04-28T21:25:45.614Z,12.93
2019-04-28T21:28:14.689Z,13.33
2019-04-28T21:30:43.695Z,11.60
2019-04-28T21:33:13.015Z,11.97
2019-04-28T21:35:42.305Z,14.60
2019-04-28T21:38:11.640Z,15.50
2019-04-28T21:40:42.028Z,18.10
2019-04-28T21:43:22.826Z,19.13
2019-04-28T21:46:13.617Z,13.20
2019-04-28T21:48:45.059Z,12.03
2019-04-28T21:51:14.098Z,13.70
2019-04-28T21:53:43.119Z,16.37
2019-04-28T21:56:12.462Z,14.07
2019-04-28T21:58:41.529Z,15.10
2019-04-28T22:01:14.119Z,14.93
2019-04-28T22:03:43.183Z,17.60
2019-04-28T22:06:12.215Z,18.90
2019-04-28T22:08:41.263Z,16.70
2019-04-28T22:11:10.271Z,16.87
2019-04-28T22:13:39.597Z,18.70
2019-04-28T22:16:08.753Z,16.43
2019-04-28T22:18:37.790Z,15.03
2019-04-28T22:21:06.847Z,15.80
2019-04-28T22:24:00.597Z,16.77
2019-04-28T22:26:49.495Z,19.17
2019-04-28T22:29:18.578Z,16.17
2019-04-28T22:31:47.933Z,16.20
2019-04-28T22:34:16.957Z,18.47
2019-04-28T22:36:46.864Z,16.10
2019-04-28T22:39:16.626Z,11.60
2019-04-28T22:41:45.650Z,11.73
2019-04-28T22:44:14.665Z,12.63
2019-04-28T22:46:43.979Z,11.83
2019-04-28T22:49:14.841Z,14.07
2019-04-28T22:51:43.853Z,11.67
2019-04-28T22:54:28.429Z,14.33
2019-04-28T22:57:25.185Z,13.77
2019-04-28T22:59:54.303Z,15.40
2019-04-28T23:02:23.389Z,11.70
2019-04-28T23:04:56.270Z,12.33
2019-04-28T23:07:25.309Z,12.97
2019-04-28T23:09:54.308Z,11.43
2019-04-28T23:12:23.360Z,12.70
2019-04-28T23:14:52.675Z,11.17
2019-04-28T23:17:22.397Z,10.97
2019-04-28T23:19:51.419Z,11.33
2019-04-28T23:22:46.238Z,11.73
2019-04-28T23:25:07.603Z,8.53
2019-04-28T23:27:36.662Z,9.30
2019-04-28T23:30:06.671Z,9.60
2019-04-28T23:32:35.698Z,10.87
2019-04-28T23:35:05.112Z,12.93
2019-04-28T23:37:34.131Z,13.93
2019-04-28T23:40:03.138Z,12.67
2019-04-28T23:42:55.707Z,11.70
2019-04-28T23:45:24.763Z,11.10
2019-04-28T23:47:53.749Z,11.30
2019-04-28T23:50:29.711Z,7.80
2019-04-28T23:53:08.912Z,10.50
2019-04-28T23:55:38.228Z,10.53
2019-04-28T23:58:07.221Z,11.17
